tititudorancea.com
Station Historical Data
Daily Summary for Nil La, TWC- Units:  English    Metric   Both
« Previous Day
Next Day »
Daily Weekly Monthly Yearly Custom
  High: Low: Average:
Temperature: TemperatureF °F 54.9 °F 59 °F
Dew Point: DewpointF °F 52.9 °F 55.4 °F
Humidity: Humidity % 61 % 88 %
Wind Speed: WindSpeedMPH mph 0 mph 6.8 mph
Wind Gust: WindSpeedGustMPH mph - -
Wind:- - SE
Pressure: PressureIn in 29.41 in -
Precipitation: 0.181 in    
Historical Graphs
 
 
Ararat weather Find more about Weather in Ararat, AU


 



 


Tabular Data for Nil La, TWC-
Time Temperature Dew Point Pressure Wind Wind Speed Wind Gust Humidity Rainfall Rate (Hourly)
TemperatureF °F DewpointF °F PressureIn in Calm     Humidity % HourlyPrecipIn in
00:04 57.4 °F 56 °F 29.42 in North 15 mph 8 mph 95 % 0 in
00:09 57.5 °F 56.1 °F 29.41 in North 12.7 mph 8.6 mph 95 % 0 in
00:14 57.5 °F 56.1 °F 29.41 in South 11.5 mph 5.9 mph 95 % 0 in
00:19 57.5 °F 56.1 °F 29.41 in SSW 17.3 mph 9.4 mph 95 % 0 in
00:24 57.6 °F 56.2 °F 29.41 in SSW 13 mph 10.2 mph 95 % 0 in
00:29 57.6 °F 56.5 °F 29.41 in South 10.4 mph 7.3 mph 96 % 0 in
00:34 57.6 °F 56.5 °F 29.41 in South 6.9 mph 6.9 mph 96 % 0 in
00:39 57.7 °F 56.6 °F 29.42 in North 11.5 mph 7.7 mph 96 % 0 in
00:44 57.8 °F 56.7 °F 29.42 in South 13.8 mph 9.4 mph 96 % 0 in
00:49 57.9 °F 56.8 °F 29.42 in SSE 11.5 mph 8 mph 96 % 0 in
00:54 57.9 °F 56.8 °F 29.42 in SSE 11.5 mph 5.3 mph 96 % 0 in
00:59 58 °F 56.9 °F 29.42 in South 9.2 mph 5.6 mph 96 % 0 in
01:04 58.1 °F 57 °F 29.42 in South 6.9 mph 2.7 mph 96 % 0 in
01:09 58.1 °F 57 °F 29.43 in SE 6 mph 6.3 mph 96 % 0 in
01:14 58.1 °F 57 °F 29.43 in SE 12.7 mph 8.6 mph 96 % 0.008 in
01:19 58.1 °F 57 °F 29.42 in SSE 11.5 mph 6 mph 96 % 0.016 in
01:24 58.1 °F 57 °F 29.43 in SSE 7 mph 4.8 mph 96 % 0.016 in
01:29 58.1 °F 57 °F 29.43 in North 6.9 mph 3.4 mph 96 % 0.016 in
01:34 58.3 °F 57.2 °F 29.43 in SSE 9.2 mph 4.9 mph 96 % 0.016 in
01:39 58.3 °F 57.2 °F 29.44 in SSE 7 mph 5.4 mph 96 % 0.016 in
01:44 58.3 °F 57.2 °F 29.44 in North 5.8 mph 4.3 mph 96 % 0.016 in
01:49 58.3 °F 57.2 °F 29.44 in North 6.9 mph 5.8 mph 96 % 0.024 in
01:54 57.7 °F 56.3 °F 29.44 in ESE 8.1 mph 4.2 mph 95 % 0.047 in
01:59 57.1 °F 55.7 °F 29.45 in North 8.1 mph 2.2 mph 95 % 0.063 in
02:04 56.8 °F 55.4 °F 29.45 in ESE 6 mph 3.2 mph 95 % 0.071 in
02:09 56.6 °F 55.5 °F 29.44 in ESE 3.5 mph 0.1 mph 96 % 0.079 in
02:14 56.5 °F 55.4 °F 29.44 in Calm     96 % 0.079 in
02:19 56.4 °F 55.3 °F 29.44 in ESE 4 mph 0.3 mph 96 % 0.071 in
02:24 56.4 °F 55.3 °F 29.44 in ESE 1.2 mph   96 % 0.071 in
02:29 56.3 °F 55.2 °F 29.44 in Calm     96 % 0.071 in
02:34 56.3 °F 55.2 °F 29.44 in Calm     96 % 0.071 in
02:39 56.3 °F 55.2 °F 29.44 in Calm     96 % 0.071 in
02:44 56.3 °F 55.2 °F 29.44 in Calm     96 % 0.071 in
02:49 56.3 °F 55.2 °F 29.44 in Calm     96 % 0.071 in
02:54 56.4 °F 55.3 °F 29.44 in Calm     96 % 0.047 in
02:59 56.4 °F 55.3 °F 29.44 in Calm     96 % 0.031 in
03:04 56.5 °F 55.4 °F 29.45 in Calm     96 % 0.024 in
03:09 56.5 °F 55.4 °F 29.45 in ESE 1 mph   96 % 0.016 in
03:14 56.6 °F 55.5 °F 29.45 in Calm     96 % 0.016 in
03:19 56.7 °F 55.6 °F 29.45 in North 2.3 mph 0.8 mph 96 % 0.016 in
03:24 56.7 °F 55.6 °F 29.45 in ESE 4 mph 2.4 mph 96 % 0.016 in
03:29 56.8 °F 55.7 °F 29.44 in ESE 6.9 mph 5.9 mph 96 % 0.016 in
03:34 56.8 °F 55.7 °F 29.44 in North 4.6 mph 3.5 mph 96 % 0.031 in
03:39 56.9 °F 55.8 °F 29.45 in ESE 6 mph 3.2 mph 96 % 0.031 in
03:44 57 °F 55.9 °F 29.45 in ESE 6.9 mph 3 mph 96 % 0.031 in
03:49 57.2 °F 56.1 °F 29.45 in ESE 5.8 mph 3.4 mph 96 % 0.024 in
03:54 57.2 °F 56.1 °F 29.45 in ESE 6.9 mph 5.7 mph 96 % 0.024 in
03:59 57.1 °F 56 °F 29.46 in ESE 5.8 mph 4.7 mph 96 % 0.024 in
04:04 57 °F 55.9 °F 29.46 in North 8.1 mph 3.9 mph 96 % 0.024 in
04:09 56.8 °F 55.7 °F 29.46 in ESE 5.8 mph 4.8 mph 96 % 0.024 in
04:14 56.8 °F 55.7 °F 29.47 in ESE 6 mph 5 mph 96 % 0.016 in
04:19 56.7 °F 55.6 °F 29.47 in North 6.9 mph 4.3 mph 96 % 0.016 in
04:24 56.5 °F 55.4 °F 29.48 in ESE 3.5 mph 2.8 mph 96 % 0.016 in
04:29 56.5 °F 55.4 °F 29.48 in ESE 5.8 mph 5.2 mph 96 % 0.016 in
04:34 56.4 °F 55.3 °F 29.48 in ESE 5 mph 4.8 mph 96 % 0 in
04:39 56.3 °F 55.2 °F 29.48 in ESE 4.6 mph 2.9 mph 96 % 0 in
04:44 56.2 °F 55.1 °F 29.48 in ESE 5.8 mph 4.9 mph 96 % 0 in
04:49 56.1 °F 55 °F 29.48 in ESE 3.5 mph 0.3 mph 96 % 0 in
04:54 55.9 °F 54.8 °F 29.48 in ESE 4 mph 1.8 mph 96 % 0 in
04:59 55.8 °F 54.7 °F 29.49 in ESE 5 mph 3.9 mph 96 % 0 in
05:04 55.6 °F 54.5 °F 29.49 in ESE 3.5 mph 1.7 mph 96 % 0 in
05:09 55.6 °F 54.5 °F 29.49 in ESE 8.1 mph 2.4 mph 96 % 0 in
05:14 55.5 °F 54.4 °F 29.50 in East 9.2 mph 7 mph 96 % 0 in
05:19 55.5 °F 54.4 °F 29.50 in ENE 12.7 mph 7.6 mph 96 % 0 in
05:24 55.6 °F 54.5 °F 29.50 in East 12.7 mph 7.2 mph 96 % 0 in
05:29 55.5 °F 54.1 °F 29.50 in East 11.5 mph 6.3 mph 95 % 0 in
05:34 55.6 °F 54.2 °F 29.50 in ENE 10.4 mph 4.7 mph 95 % 0 in
05:39 55.6 °F 54.2 °F 29.50 in East 11.5 mph 5.4 mph 95 % 0 in
05:44 55.8 °F 54.4 °F 29.50 in East 7 mph 6.1 mph 95 % 0 in
05:49 55.9 °F 54.2 °F 29.51 in East 8.1 mph 5.1 mph 94 % 0 in
05:54 55.8 °F 54.1 °F 29.50 in East 9.2 mph 3.1 mph 94 % 0 in
05:59 55.8 °F 53.8 °F 29.51 in East 6.9 mph 3.8 mph 93 % 0 in
06:04 55.7 °F 53.7 °F 29.52 in East 6.9 mph 4.2 mph 93 % 0 in
06:09 55.7 °F 53.7 °F 29.53 in East 5.8 mph 4 mph 93 % 0 in
06:14 55.6 °F 53.6 °F 29.53 in Calm     93 % 0 in
06:19 55.5 °F 53.5 °F 29.54 in East 2.3 mph 0.3 mph 93 % 0 in
06:24 55.4 °F 53.1 °F 29.53 in Calm     92 % 0 in
06:29 55.3 °F 53.3 °F 29.53 in East 3.5 mph 1.4 mph 93 % 0 in
06:34 55.3 °F 53.3 °F 29.54 in Calm   0.1 mph 93 % 0 in
06:39 55.2 °F 53.2 °F 29.54 in East 2.3 mph 1.6 mph 93 % 0 in
06:44 55.1 °F 53.1 °F 29.54 in East 1.2 mph   93 % 0 in
06:49 55.1 °F 53.1 °F 29.54 in Calm     93 % 0 in
06:54 55.1 °F 53.1 °F 29.54 in Calm   0.9 mph 93 % 0 in
06:59 54.9 °F 52.9 °F 29.54 in East 1.2 mph 1.4 mph 93 % 0 in
07:04 55 °F 53 °F 29.54 in Calm     93 % 0 in
07:09 55.4 °F 53.4 °F 29.54 in East 1 mph 0.8 mph 93 % 0 in
07:14 55.7 °F 53.7 °F 29.54 in East 2.3 mph 0.3 mph 93 % 0 in
07:19 55.8 °F 53.5 °F 29.54 in Calm     92 % 0 in
07:24 56 °F 53.7 °F 29.54 in Calm     92 % 0 in
07:29 56.1 °F 53.5 °F 29.55 in Calm     91 % 0 in
07:34 56.2 °F 53.6 °F 29.55 in Calm     91 % 0 in
07:39 56.4 °F 54.1 °F 29.55 in Calm     92 % 0 in
07:44 56.7 °F 54.4 °F 29.56 in Calm     92 % 0 in
07:49 56.9 °F 54.6 °F 29.56 in Calm     92 % 0 in
07:54 57 °F 54.4 °F 29.57 in East 2 mph 1.1 mph 91 % 0 in
07:59 57 °F 54.4 °F 29.57 in East 4.6 mph 4.3 mph 91 % 0 in
08:04 56.9 °F 54.3 °F 29.58 in East 3.5 mph 1.7 mph 91 % 0 in
08:09 56.9 °F 54.3 °F 29.59 in East 3.5 mph 0.9 mph 91 % 0 in
08:14 57 °F 54.4 °F 29.60 in East 2.3 mph 0.4 mph 91 % 0 in
08:19 57.1 °F 54.5 °F 29.60 in East 3.5 mph 0.1 mph 91 % 0 in
08:24 57.3 °F 54.7 °F 29.59 in East 6 mph 3.1 mph 91 % 0 in
08:29 57.4 °F 54.5 °F 29.60 in East 9.2 mph 6.3 mph 90 % 0 in
08:34 57.6 °F 54.7 °F 29.61 in ESE 8.1 mph 5.2 mph 90 % 0 in
08:39 57.8 °F 54.6 °F 29.62 in ESE 6.9 mph 5.5 mph 89 % 0 in
08:44 57.9 °F 54.4 °F 29.60 in ESE 6 mph 5.8 mph 88 % 0 in
08:49 57.9 °F 54.4 °F 29.60 in SE 8.1 mph 5.1 mph 88 % 0 in
08:54 58 °F 54.2 °F 29.63 in SE 5.8 mph 4.6 mph 87 % 0 in
08:59 58.1 °F 54.2 °F 29.62 in SE 3.5 mph 2.9 mph 87 % 0 in
09:04 58.3 °F 54.4 °F 29.62 in SE 5.8 mph 4.8 mph 87 % 0 in
09:09 58.4 °F 54.5 °F 29.61 in SE 6.9 mph 6 mph 87 % 0 in
09:14 58.4 °F 54.9 °F 29.61 in SE 5.8 mph 4.6 mph 88 % 0 in
09:19 58.3 °F 54.8 °F 29.60 in SE 7 mph 5.3 mph 88 % 0 in
09:24 58.3 °F 55.1 °F 29.59 in SE 8.1 mph 3.5 mph 89 % 0 in
09:29 58.2 °F 55 °F 29.61 in SE 8.1 mph 6.1 mph 89 % 0.008 in
09:34 58.1 °F 54.9 °F 29.61 in SE 9.2 mph 5.2 mph 89 % 0.008 in
09:39 57.9 °F 54.4 °F 29.61 in SE 6.9 mph 4.1 mph 88 % 0.016 in
09:44 57.8 °F 54.6 °F 29.61 in SE 5.8 mph 2 mph 89 % 0.016 in
09:49 57.8 °F 54.9 °F 29.62 in SE 5 mph 3.6 mph 90 % 0.024 in
09:54 57.8 °F 54.9 °F 29.61 in North 3.5 mph 0.8 mph 90 % 0.031 in
09:59 57.8 °F 55.2 °F 29.62 in North 8.1 mph 5.8 mph 91 % 0.031 in
10:04 57.9 °F 55.3 °F 29.61 in SE 15 mph 5.9 mph 91 % 0.031 in
10:09 57.8 °F 55.2 °F 29.60 in SE 9.2 mph 5.6 mph 91 % 0.039 in
10:14 57.9 °F 55.3 °F 29.60 in SE 7 mph 5 mph 91 % 0.039 in
10:19 58.1 °F 55.5 °F 29.62 in SE 9.2 mph 7.2 mph 91 % 0.039 in
10:24 58.3 °F 55.4 °F 29.61 in SE 8.1 mph 4.5 mph 90 % 0.039 in
10:29 58.7 °F 55.5 °F 29.62 in SE 7 mph 6.8 mph 89 % 0.031 in
10:34 59.3 °F 55.7 °F 29.63 in ESE 18.4 mph 10.6 mph 88 % 0.031 in
10:39 60.2 °F 55.7 °F 29.63 in ESE 15 mph 7 mph 85 % 0.024 in
10:44 61 °F 55.5 °F 29.64 in ESE 16.1 mph 10.6 mph 82 % 0.024 in
10:49 61.6 °F 55.7 °F 29.63 in ESE 13.8 mph 8.1 mph 81 % 0.016 in
10:54 61.8 °F 55.6 °F 29.62 in SE 9.2 mph 4.2 mph 80 % 0.008 in
10:59 62.1 °F 56.2 °F 29.61 in SE 9.2 mph 5.3 mph 81 % 0.008 in
11:04 62 °F 56.4 °F 29.61 in SE 10.4 mph 3.9 mph 82 % 0.008 in
11:09 61.7 °F 56.1 °F 29.62 in SE 13.8 mph 9.7 mph 82 % 0 in
11:14 61.2 °F 55.7 °F 29.61 in SE 9.2 mph 8.3 mph 82 % 0 in
11:19 60.8 °F 55.3 °F 29.63 in SE 13.8 mph 8.1 mph 82 % 0 in
11:24 60.4 °F 55.5 °F 29.62 in SSE 9.2 mph 7.5 mph 84 % 0 in
11:29 59.9 °F 55.7 °F 29.62 in SSE 9 mph 5.2 mph 86 % 0 in
11:34 59.6 °F 55.7 °F 29.61 in SSE 8.1 mph 6.3 mph 87 % 0 in
11:39 59.4 °F 55.8 °F 29.61 in SSE 8.1 mph 6.8 mph 88 % 0.008 in
11:44 59.3 °F 56.1 °F 29.61 in SSE 12 mph 6.6 mph 89 % 0.008 in
11:49 59 °F 55.8 °F 29.61 in SE 13.8 mph 5.8 mph 89 % 0.016 in
11:54 59 °F 55.8 °F 29.62 in North 11.5 mph 5.7 mph 89 % 0.016 in
11:59 59 °F 56.1 °F 29.61 in SE 5 mph 5.1 mph 90 % 0.016 in
12:04 59 °F 56.1 °F 29.61 in SE 8.1 mph 5.2 mph 90 % 0.024 in
12:09 59.2 °F 56.3 °F 29.61 in SE 4.6 mph 2 mph 90 % 0.024 in
12:14 59.1 °F 56.2 °F 29.61 in SE 8.1 mph 4.6 mph 90 % 0.024 in
12:19 59.2 °F 56.3 °F 29.61 in SE 13 mph 7.1 mph 90 % 0.024 in
12:24 59.3 °F 56.4 °F 29.61 in SE 11.5 mph 7 mph 90 % 0.024 in
12:29 59.5 °F 56.6 °F 29.60 in SE 8.1 mph 5 mph 90 % 0.024 in
12:34 60.7 °F 58.1 °F 29.60 in SE 11.5 mph 7.9 mph 91 % 0.024 in
12:39 62.1 °F 58.8 °F 29.60 in SE 11.5 mph 6.7 mph 89 % 0.016 in
12:44 62.8 °F 58.5 °F 29.60 in SE 11.5 mph 7.2 mph 86 % 0.016 in
12:49 63.7 °F 59.1 °F 29.60 in SE 6.9 mph 2.7 mph 85 % 0.008 in
12:54 64.2 °F 58.9 °F 29.59 in SE 6 mph 4.7 mph 83 % 0.008 in
12:59 64.9 °F 59.3 °F 29.59 in SE 4.6 mph 1.6 mph 82 % 0.008 in
13:04 65.8 °F 58.7 °F 29.59 in East 10.4 mph 4.5 mph 78 % 0 in
13:09 66.8 °F 59.4 °F 29.59 in East 11.5 mph 4.4 mph 77 % 0 in
13:14 67 °F 57.7 °F 29.59 in ENE 15 mph 10.7 mph 72 % 0 in
13:19 67.4 °F 59.2 °F 29.59 in East 11 mph 5.8 mph 75 % 0 in
13:24 67.7 °F 58.3 °F 29.59 in ENE 10.4 mph 4.9 mph 72 % 0 in
13:29 67.6 °F 57.9 °F 29.59 in ESE 13 mph 7.3 mph 71 % 0 in
13:34 67.7 °F 58.3 °F 29.59 in East 11 mph 4.2 mph 72 % 0 in
13:39 67.8 °F 57.7 °F 29.59 in East 6.9 mph 6.3 mph 70 % 0 in
13:44 68.1 °F 57.1 °F 29.59 in ENE 10.4 mph 7.5 mph 68 % 0 in
13:49 68.5 °F 57.5 °F 29.59 in ENE 8.1 mph 5.9 mph 68 % 0 in
13:54 69.3 °F 58.3 °F 29.59 in East 10.4 mph 2.9 mph 68 % 0 in
13:59 70.2 °F 58.3 °F 29.59 in East 8.1 mph 4.6 mph 66 % 0 in
14:04 70.6 °F 58.7 °F 29.59 in ENE 6 mph 4.9 mph 66 % 0 in
14:09 70.8 °F 58.9 °F 29.59 in ENE 6.9 mph 3.8 mph 66 % 0 in
14:14 71.2 °F 58.4 °F 29.59 in ENE 7 mph 5.9 mph 64 % 0 in
14:19 71.2 °F 58.4 °F 29.59 in East 6 mph 6.5 mph 64 % 0 in
14:24 71.4 °F 57.7 °F 29.59 in East 8.1 mph 5.1 mph 62 % 0 in
14:29 71.2 °F 57.5 °F 29.60 in East 7 mph 4.5 mph 62 % 0 in
14:34 70.6 °F 57.4 °F 29.60 in East 4.6 mph 4.9 mph 63 % 0 in
14:39 70.1 °F 56.9 °F 29.60 in ENE 11.5 mph 7.2 mph 63 % 0 in
14:44 69.7 °F 57 °F 29.59 in ENE 11.5 mph 4.3 mph 64 % 0 in
14:49 70 °F 57.3 °F 29.59 in ENE 4.6 mph 2.4 mph 64 % 0 in
14:54 70.5 °F 57.7 °F 29.59 in ENE 8.1 mph 3.9 mph 64 % 0 in
14:59 71.1 °F 57.4 °F 29.60 in ENE 6.9 mph 3.6 mph 62 % 0 in
15:04 71.2 °F 57.1 °F 29.60 in ENE 5 mph 3.6 mph 61 % 0 in
15:09 71.2 °F 57.1 °F 29.59 in East 5 mph 5.8 mph 61 % 0 in
Ararat Weather
Compliments of Weather Underground - 1.75 mb
Click here to send mail.


ABOUT

Live weather data from Ararat, Victoria, Australia, 3377
Data uploaded from Cumulus every 5 minutes to Weather Underground.
This site then downloads the raw data for formatting and display.
Metric and imperial data can be displayed. Graphs and historical data available.
Includes Sun and Moon times and rain image live from BOM.

Check out Ararat Weather on Facebook, Twitter and Google +

Help support ongoing costs by checking out the ads





Follow @AraratWeather